This is the latest recevied weather packets stored in our database for station/object WD9GET. If no packets are shown the sender has not sent any weather packets the latest 10 day(s).
| Time | Temp. | Humidity | Pressure | Rain* | Wind** | Luminosity | Snow |
|---|---|---|---|---|---|---|---|
| 1777667754 | 17.22° C | 98% | 1008.2 hPa | 2.29 mm | - | 8 W/m² | - |
| 1777667694 | 17.22° C | 98% | 1008.2 hPa | 2.29 mm | - | 7 W/m² | - |
| 1777667634 | 17.22° C | 98% | 1008.1 hPa | 2.79 mm | - | 6 W/m² | - |
| 1777667574 | 17.22° C | 98% | 1007.9 hPa | 3.05 mm | - | 6 W/m² | - |
| 1777667514 | 17.22° C | 98% | 1007.9 hPa | 3.3 mm | - | 6 W/m² | - |
| 1777667448 | 17.22° C | 98% | 1007.8 hPa | 3.3 mm | - | 7 W/m² | - |
| 1777667386 | 17.22° C | 98% | 1007.8 hPa | 3.81 mm | - | 7 W/m² | - |
| 1777667322 | 17.22° C | 98% | 1007.8 hPa | 3.81 mm | - | 9 W/m² | - |
| 1777667265 | 17.22° C | 98% | 1007.8 hPa | 3.81 mm | - | 10 W/m² | - |
| 1777667203 | 17.22° C | 98% | 1007.9 hPa | 3.81 mm | - | 11 W/m² | - |
| 1777667182 | 17.22° C | 98% | 1007.5 hPa | 3.81 mm | - | 17 W/m² | - |
| 1777667082 | 17.22° C | 98% | 1007.5 hPa | 3.81 mm | - | 17 W/m² | - |
| 1777667022 | 17.22° C | 98% | 1007.5 hPa | 3.81 mm | - | 17 W/m² | - |
| 1777666962 | 17.22° C | 98% | 1007.4 hPa | 3.81 mm | - | 20 W/m² | - |
| 1777666903 | 17.22° C | 98% | 1007.4 hPa | 3.56 mm | - | 21 W/m² | - |
| 1777666842 | 17.22° C | 98% | 1007.5 hPa | 3.56 mm | - | 18 W/m² | - |
| 1777666782 | 17.22° C | 98% | 1007.7 hPa | 3.56 mm | - | 17 W/m² | - |
| 1777666722 | 17.22° C | 98% | 1007.9 hPa | 3.56 mm | - | 15 W/m² | - |
| 1777666662 | 17.22° C | 98% | 1008 hPa | 3.3 mm | - | 14 W/m² | - |
| 1777666602 | 17.22° C | 98% | 1008.2 hPa | 3.3 mm | - | 14 W/m² | - |
| 1777666542 | 17.22° C | 98% | 1008.2 hPa | 3.56 mm | - | 14 W/m² | - |
| 1777666483 | 17.22° C | 98% | 1008.2 hPa | 3.81 mm | - | 14 W/m² | - |
| 1777666422 | 17.22° C | 98% | 1008.1 hPa | 3.81 mm | - | 15 W/m² | - |
| 1777666363 | 17.22° C | 98% | 1007.9 hPa | 3.81 mm | - | 15 W/m² | - |
| 1777666303 | 17.22° C | 98% | 1007.8 hPa | 3.81 mm | - | 17 W/m² | - |
* Rain latest hour (hover to see other rain measurements)
** Current wind speed in m/s (hover to see current wind gust speed)